createdAt,value
2018-12-07T00:00:30.328Z,20.83
2018-12-07T00:05:35.693Z,20.27
2018-12-07T00:10:40.544Z,22.47
2018-12-07T00:15:44.696Z,29.60
2018-12-07T00:20:51.234Z,30.43
2018-12-07T00:25:55.759Z,31.20
2018-12-07T00:30:59.860Z,27.50
2018-12-07T00:36:04.651Z,33.83
2018-12-07T00:41:08.757Z,36.80
2018-12-07T00:46:12.877Z,34.37
2018-12-07T00:51:17.016Z,30.80
2018-12-07T00:56:21.106Z,28.97
2018-12-07T01:01:26.079Z,29.23
2018-12-07T01:06:30.146Z,30.27
2018-12-07T01:11:39.683Z,31.90
2018-12-07T01:16:43.771Z,34.27
2018-12-07T01:21:47.837Z,34.00
2018-12-07T01:26:51.946Z,31.53
2018-12-07T01:31:56.022Z,35.73
2018-12-07T01:37:00.105Z,34.83
2018-12-07T01:42:04.204Z,33.27
2018-12-07T01:47:08.719Z,34.30
2018-12-07T01:52:13.692Z,32.97
2018-12-07T01:57:18.399Z,30.50
2018-12-07T02:02:22.559Z,32.83
2018-12-07T02:07:31.922Z,35.17
2018-12-07T02:12:36.020Z,33.83
2018-12-07T02:17:40.092Z,37.67
2018-12-07T02:22:44.306Z,41.47
2018-12-07T02:27:53.750Z,42.80
2018-12-07T02:32:57.828Z,47.23
2018-12-07T02:38:02.003Z,48.83
2018-12-07T02:43:07.895Z,47.90
2018-12-07T02:48:12.015Z,46.90
2018-12-07T02:53:16.154Z,46.03
2018-12-07T02:58:20.270Z,47.63
2018-12-07T03:03:24.659Z,44.93
2018-12-07T03:08:28.749Z,50.20
2018-12-07T03:13:35.692Z,40.57
2018-12-07T03:18:39.779Z,42.67
2018-12-07T03:23:43.918Z,42.30
2018-12-07T03:28:48.036Z,40.03
2018-12-07T03:33:52.150Z,37.70
2018-12-07T03:38:56.299Z,48.30
2018-12-07T03:44:00.679Z,51.83
2018-12-07T03:49:04.765Z,46.03
2018-12-07T03:54:10.626Z,50.80
2018-12-07T03:59:15.093Z,44.03
2018-12-07T04:04:19.170Z,42.07
2018-12-07T04:09:23.243Z,49.80
2018-12-07T04:14:27.370Z,56.10
2018-12-07T04:19:31.478Z,57.73
2018-12-07T04:24:35.570Z,54.47
2018-12-07T04:29:39.681Z,49.57
2018-12-07T04:34:43.773Z,46.57
2018-12-07T04:39:47.855Z,46.93
2018-12-07T04:44:51.949Z,46.20
2018-12-07T04:49:56.048Z,46.47
2018-12-07T04:55:00.223Z,42.07
2018-12-07T05:00:06.790Z,42.00
2018-12-07T05:05:11.750Z,46.77
2018-12-07T05:10:15.836Z,46.27
2018-12-07T05:15:20.374Z,45.30
2018-12-07T05:20:24.481Z,41.67
2018-12-07T05:25:28.572Z,43.80
2018-12-07T05:30:32.656Z,42.07
2018-12-07T05:35:36.783Z,44.17
2018-12-07T05:40:40.872Z,40.20
2018-12-07T05:45:44.993Z,39.97
2018-12-07T05:50:49.065Z,38.60
2018-12-07T05:55:53.135Z,38.43
2018-12-07T06:00:57.269Z,43.30
2018-12-07T06:06:01.331Z,39.67
2018-12-07T06:11:05.418Z,42.17
2018-12-07T06:16:09.484Z,39.70
2018-12-07T06:21:13.574Z,39.70
2018-12-07T06:26:18.286Z,39.57
2018-12-07T06:31:22.364Z,40.10
2018-12-07T06:36:26.453Z,42.80
2018-12-07T06:41:30.535Z,36.80
2018-12-07T06:46:34.596Z,31.97
2018-12-07T06:51:38.993Z,37.30
2018-12-07T06:56:43.116Z,33.27
2018-12-07T07:01:47.198Z,28.77
2018-12-07T07:06:51.290Z,39.10
2018-12-07T07:11:55.357Z,32.70
2018-12-07T07:16:59.455Z,32.90
2018-12-07T07:22:04.081Z,30.93
2018-12-07T07:27:08.177Z,29.27
2018-12-07T07:32:12.288Z,29.03
2018-12-07T07:37:16.395Z,32.00
2018-12-07T07:42:20.467Z,29.90
2018-12-07T07:47:24.538Z,31.80
2018-12-07T07:52:28.812Z,32.83
2018-12-07T07:57:33.182Z,39.93
2018-12-07T08:02:37.293Z,41.70
2018-12-07T08:07:41.442Z,48.07
2018-12-07T08:12:45.517Z,49.67
2018-12-07T08:17:49.589Z,51.60
2018-12-07T08:22:54.151Z,51.77
2018-12-07T08:27:58.683Z,46.50
2018-12-07T08:33:08.212Z,49.53
2018-12-07T08:38:12.276Z,51.40
2018-12-07T08:43:17.125Z,53.17
2018-12-07T08:48:21.222Z,51.87
2018-12-07T08:53:25.393Z,54.70
2018-12-07T08:58:29.911Z,49.97
2018-12-07T09:03:34.982Z,52.77
2018-12-07T09:08:39.067Z,51.07
2018-12-07T09:13:43.141Z,52.07
2018-12-07T09:18:47.223Z,53.10
2018-12-07T09:23:51.338Z,53.17
2018-12-07T09:28:55.436Z,54.40
2018-12-07T09:33:59.505Z,53.83
2018-12-07T09:39:05.629Z,53.27
2018-12-07T09:44:09.699Z,60.27
2018-12-07T09:49:13.751Z,54.37
2018-12-07T09:54:17.820Z,57.50
2018-12-07T09:59:21.881Z,52.77
2018-12-07T10:04:25.934Z,49.27
2018-12-07T10:09:30.072Z,48.73
2018-12-07T10:14:34.134Z,43.97
2018-12-07T10:19:38.187Z,42.83
2018-12-07T10:29:52.555Z,47.03
2018-12-07T10:34:56.898Z,50.67
2018-12-07T10:40:01.068Z,46.70
2018-12-07T10:45:06.951Z,40.57
2018-12-07T10:50:11.060Z,39.30
2018-12-07T10:55:15.130Z,43.57
2018-12-07T11:00:24.496Z,44.07
2018-12-07T11:05:33.917Z,52.07
2018-12-07T11:10:43.352Z,54.77
2018-12-07T11:15:52.839Z,71.13
2018-12-07T11:21:02.030Z,57.30
2018-12-07T11:26:11.393Z,55.87
2018-12-07T11:31:20.947Z,43.30
2018-12-07T11:36:25.069Z,45.93
2018-12-07T11:41:29.148Z,45.07
2018-12-07T11:46:33.235Z,48.27
2018-12-07T11:51:37.372Z,42.50
2018-12-07T11:56:41.425Z,52.97
2018-12-07T12:01:45.549Z,48.90
2018-12-07T12:06:49.713Z,58.03
2018-12-07T12:11:53.782Z,70.37
2018-12-07T12:16:57.867Z,50.03
2018-12-07T12:22:02.108Z,49.20
2018-12-07T12:27:06.246Z,48.10
2018-12-07T12:32:10.368Z,48.23
2018-12-07T12:37:14.425Z,39.23
2018-12-07T12:42:18.799Z,34.53
2018-12-07T12:47:22.980Z,28.27
2018-12-07T12:52:27.117Z,24.27
2018-12-07T12:57:31.182Z,28.60
2018-12-07T13:02:35.283Z,32.47
2018-12-07T13:07:41.105Z,24.87
2018-12-07T13:12:45.187Z,28.63
2018-12-07T13:17:49.271Z,26.57
2018-12-07T13:22:54.236Z,24.73
2018-12-07T13:27:58.554Z,32.43
2018-12-07T13:33:02.718Z,25.87
2018-12-07T13:38:06.793Z,25.83
2018-12-07T13:43:11.131Z,24.90
2018-12-07T13:48:15.491Z,32.87
2018-12-07T13:53:20.827Z,28.17
2018-12-07T13:58:25.200Z,29.10
2018-12-07T14:03:29.605Z,33.93
2018-12-07T14:08:33.926Z,32.80
2018-12-07T14:13:38.317Z,32.33
2018-12-07T14:18:42.688Z,32.90
2018-12-07T14:23:47.387Z,31.93
2018-12-07T14:28:51.990Z,31.53
2018-12-07T14:33:56.496Z,29.10
2018-12-07T14:39:01.079Z,33.17
2018-12-07T14:44:05.673Z,29.80
2018-12-07T14:49:10.286Z,32.73
2018-12-07T14:54:14.648Z,40.17
2018-12-07T14:59:18.738Z,31.60
2018-12-07T15:04:22.918Z,31.07
2018-12-07T15:09:33.635Z,26.67
2018-12-07T15:14:37.985Z,27.50
2018-12-07T15:19:42.072Z,28.27
2018-12-07T15:24:46.269Z,25.17
2018-12-07T15:29:50.663Z,27.10
2018-12-07T15:34:55.314Z,31.03
2018-12-07T15:39:59.890Z,26.50
2018-12-07T15:45:06.156Z,30.90
2018-12-07T15:50:10.867Z,27.87
2018-12-07T15:55:14.989Z,30.27
2018-12-07T16:00:20.163Z,38.27
2018-12-07T16:05:24.799Z,44.27
2018-12-07T16:10:29.279Z,35.70
2018-12-07T16:15:33.740Z,34.77
2018-12-07T16:20:38.091Z,31.30
2018-12-07T16:25:42.321Z,33.53
2018-12-07T16:30:46.808Z,33.10
2018-12-07T16:35:51.079Z,30.37
2018-12-07T16:40:55.668Z,28.70
2018-12-07T16:45:59.791Z,28.70
2018-12-07T16:51:03.884Z,29.03
2018-12-07T16:56:08.592Z,27.43
2018-12-07T17:01:13.019Z,26.67
2018-12-07T17:06:17.368Z,30.27
2018-12-07T17:11:21.633Z,28.07
2018-12-07T17:16:26.074Z,27.87
2018-12-07T17:21:30.514Z,29.00
2018-12-07T17:26:34.993Z,33.70
2018-12-07T17:31:39.284Z,12.00
2018-12-07T17:36:43.349Z,4.37
2018-12-07T17:41:48.145Z,12.33
2018-12-07T17:46:52.536Z,9.60
2018-12-07T17:51:57.097Z,6.13
2018-12-07T17:57:01.722Z,5.93
2018-12-07T18:02:06.807Z,16.63
2018-12-07T18:07:10.977Z,15.33
2018-12-07T18:12:15.303Z,4.60
2018-12-07T18:17:19.400Z,4.93
2018-12-07T18:22:24.264Z,4.80
2018-12-07T18:27:28.543Z,44.63
2018-12-07T18:32:33.336Z,5.53
2018-12-07T18:37:37.752Z,58.57
2018-12-07T18:42:42.224Z,10.63
2018-12-07T18:47:46.764Z,5.83
2018-12-07T18:52:52.575Z,9.17
2018-12-07T18:57:58.811Z,4.57
2018-12-07T19:03:04.480Z,4.90
2018-12-07T19:08:10.025Z,3.70
2018-12-07T19:13:14.400Z,3.17
2018-12-07T19:18:18.969Z,3.30
2018-12-07T19:23:23.723Z,6.63
2018-12-07T19:28:28.127Z,3.93
2018-12-07T19:33:32.421Z,3.87
2018-12-07T19:38:36.539Z,14.33
2018-12-07T19:43:41.204Z,5.13
2018-12-07T19:48:45.734Z,4.90
2018-12-07T19:53:50.476Z,4.67
2018-12-07T19:58:55.069Z,11.67
2018-12-07T20:03:59.408Z,6.57
2018-12-07T20:09:05.589Z,13.60
2018-12-07T20:14:10.102Z,5.57
2018-12-07T20:19:14.931Z,6.27
2018-12-07T20:24:19.289Z,7.30
2018-12-07T20:29:23.365Z,5.43
2018-12-07T20:34:27.942Z,8.70
2018-12-07T20:39:32.412Z,8.87
2018-12-07T20:44:37.087Z,6.50
2018-12-07T20:49:41.777Z,6.80
2018-12-07T20:54:46.350Z,7.77
2018-12-07T20:59:51.362Z,9.40
2018-12-07T21:04:58.939Z,6.67
2018-12-07T21:10:24.229Z,20.03
2018-12-07T21:15:28.526Z,7.13
2018-12-07T21:20:33.283Z,6.00
2018-12-07T21:25:37.797Z,6.10
2018-12-07T21:30:55.933Z,5.43
2018-12-07T21:36:19.974Z,4.50
2018-12-07T21:41:24.381Z,12.37
2018-12-07T21:46:29.071Z,5.40
2018-12-07T21:52:12.407Z,2.53
2018-12-07T21:57:17.037Z,4.60
2018-12-07T22:02:21.443Z,2.97
2018-12-07T22:07:25.779Z,2.70
2018-12-07T22:12:30.523Z,2.40
2018-12-07T22:17:35.004Z,2.40
2018-12-07T22:22:39.519Z,2.07
2018-12-07T22:27:44.013Z,2.57
2018-12-07T22:32:48.926Z,2.60
2018-12-07T22:37:53.780Z,2.40
2018-12-07T22:42:58.527Z,3.43
2018-12-07T22:48:04.528Z,2.77
2018-12-07T22:53:08.911Z,2.80
2018-12-07T22:58:13.236Z,3.60
2018-12-07T23:03:17.383Z,4.20
2018-12-07T23:08:22.429Z,3.90
2018-12-07T23:13:26.532Z,3.63
2018-12-07T23:18:30.780Z,4.00
2018-12-07T23:23:34.972Z,6.63
2018-12-07T23:28:39.318Z,3.33
2018-12-07T23:33:43.579Z,5.17
2018-12-07T23:38:47.716Z,6.03
2018-12-07T23:43:53.703Z,2.87
2018-12-07T23:48:57.802Z,3.03
2018-12-07T23:54:03.763Z,2.50
2018-12-07T23:59:08.904Z,3.37
